Franklin, Georgia
Current Conditions -  °F | °C
As of 4:35 AM on Thursday 27 Nov 2014 (Local Time) from KLGC Reporting Station
Clear Clear  
Wind Chill: 37°   Ceiling: Unl
Heat Index: 41°   Visibility: 10mi
Dew Point: 31°   Wind: 7mph
Humidity: 67%   Direction: 300°WNW
Pressure: 30.18"   Gusts: NA
Location:  33.28°N, 85.1°W
Report Text: KLGC 270935Z AUTO 30006KT 10SM CLR 05/00 A3018 RMK AO2 T00511005
Loading
Personal Weather Stations






























Interactive Weather Map New forecast layout! Learn more

10-Day Weather Forecast

Advertisements
Track Severe Weather on mobile